Time;durP1;ratioP1;P1;durP2;ratioP2;P2;SDS_P1;SDS_P2;PMS_P1;PMS_P2;Temp;Humidity;BMP_temperature;BMP_pressure;BME280_temperature;BME280_humidity;BME280_pressure;Samples;Min_cycle;Max_cycle;Signal;HPM_P1;HPM_P2
2022/07/29 00:02:09;;;;;;;2.08;1.00;;;14.70;99.90;;;;;;5120033;28;20165;-70
2022/07/29 00:04:36;;;;;;;2.60;1.00;;;14.70;99.90;;;;;;5122100;28;20035;-70
2022/07/29 00:07:03;;;;;;;2.30;1.27;;;14.60;99.90;;;;;;5102082;28;20032;-70
2022/07/29 00:09:28;;;;;;;2.22;0.90;;;14.70;99.90;;;;;;5103714;28;20039;-70
2022/07/29 00:11:58;;;;;;;2.33;1.00;;;14.70;99.90;;;;;;5121555;28;20130;-70
2022/07/29 00:14:24;;;;;;;2.00;1.10;;;14.60;99.90;;;;;;5138539;27;20047;-70
2022/07/29 00:16:50;;;;;;;2.35;1.05;;;14.60;99.90;;;;;;5131885;27;20105;-70
2022/07/29 00:19:16;;;;;;;2.35;1.13;;;14.60;99.90;;;;;;5123928;27;20071;-70
2022/07/29 00:21:41;;;;;;;2.22;1.27;;;14.60;99.90;;;;;;5103587;28;20032;-71
2022/07/29 00:24:07;;;;;;;1.67;1.00;;;14.50;99.90;;;;;;5120142;28;20040;-70
2022/07/29 00:26:33;;;;;;;2.70;1.20;;;14.50;99.90;;;;;;5115731;28;20571;-69
2022/07/29 00:29:00;;;;;;;2.65;1.20;;;14.50;99.90;;;;;;5120792;28;20039;-69
2022/07/29 00:31:26;;;;;;;1.75;1.10;;;14.50;99.90;;;;;;5120992;28;20087;-70
2022/07/29 00:33:52;;;;;;;2.55;1.20;;;14.40;99.90;;;;;;5122209;28;20039;-70
2022/07/29 00:36:20;;;;;;;1.80;1.13;;;14.40;99.90;;;;;;5119711;28;20097;-69
2022/07/29 00:38:49;;;;;;;2.47;1.20;;;14.40;99.90;;;;;;5126940;27;20074;-69
2022/07/29 00:41:16;;;;;;;2.83;1.50;;;14.30;99.90;;;;;;5101381;28;20118;-69
2022/07/29 00:43:42;;;;;;;1.95;1.05;;;14.30;99.90;;;;;;5121138;28;20078;-69
2022/07/29 00:46:08;;;;;;;1.90;1.08;;;14.30;99.90;;;;;;5124554;27;20096;-69
2022/07/29 00:48:33;;;;;;;2.45;1.13;;;14.30;99.90;;;;;;5092129;28;20047;-69
2022/07/29 00:51:02;;;;;;;2.72;1.30;;;14.30;99.90;;;;;;5103158;28;20054;-68
2022/07/29 00:53:29;;;;;;;2.22;1.33;;;14.30;99.90;;;;;;5101210;28;20043;-70
2022/07/29 00:55:56;;;;;;;2.13;1.20;;;14.30;99.90;;;;;;5107335;28;20054;-69
2022/07/29 00:58:22;;;;;;;2.95;1.30;;;14.30;99.90;;;;;;5119572;28;20075;-69
2022/07/29 01:00:48;;;;;;;2.15;1.40;;;14.30;99.90;;;;;;5126907;28;20066;-69
2022/07/29 01:03:14;;;;;;;2.33;1.20;;;14.30;99.90;;;;;;5110333;28;20481;-69
2022/07/29 01:05:42;;;;;;;2.22;1.40;;;14.30;99.90;;;;;;5127896;28;20031;-69
2022/07/29 01:08:11;;;;;;;2.47;1.33;;;14.30;99.90;;;;;;5106013;28;20078;-69
2022/07/29 01:10:38;;;;;;;2.75;1.17;;;14.30;99.90;;;;;;5100876;28;20040;-69
2022/07/29 01:13:04;;;;;;;2.30;1.20;;;14.30;99.90;;;;;;5104683;28;20097;-69
2022/07/29 01:15:30;;;;;;;2.33;1.55;;;14.20;99.90;;;;;;5122091;28;20051;-69
2022/07/29 01:18:36;;;;;;;2.90;1.20;;;14.20;99.90;;;;;;5125605;28;20060;-69
2022/07/29 01:21:13;;;;;;;2.88;1.48;;;14.30;99.90;;;;;;5118606;27;20126;-69
2022/07/29 01:23:55;;;;;;;3.10;1.70;;;14.20;99.90;;;;;;5139896;27;20039;-69
2022/07/29 01:26:40;;;;;;;2.45;1.20;;;14.20;99.90;;;;;;5144644;27;20043;-69
2022/07/29 01:29:22;;;;;;;3.80;1.52;;;14.20;99.90;;;;;;5122700;28;20039;-69
2022/07/29 01:31:54;;;;;;;3.22;1.40;;;14.20;99.90;;;;;;5122414;28;20418;-70
2022/07/29 01:34:37;;;;;;;1.90;1.25;;;14.20;99.90;;;;;;5106597;28;20048;-69
2022/07/29 01:37:15;;;;;;;2.22;1.35;;;14.20;99.90;;;;;;5086607;28;20059;-69
2022/07/29 01:39:42;;;;;;;2.55;1.40;;;14.20;99.90;;;;;;5104568;28;20040;-69
2022/07/29 01:42:21;;;;;;;2.05;1.25;;;14.20;99.90;;;;;;5116089;27;20049;-70
2022/07/29 01:44:56;;;;;;;2.90;1.55;;;14.20;99.90;;;;;;5087563;28;20051;-69
2022/07/29 01:47:31;;;;;;;2.28;1.48;;;14.10;99.90;;;;;;5123425;28;20110;-69
2022/07/29 01:49:59;;;;;;;2.03;1.00;;;14.20;99.90;;;;;;5103744;28;20047;-68
2022/07/29 01:52:37;;;;;;;3.22;1.30;;;14.10;99.90;;;;;;5073569;27;20055;-69
2022/07/29 01:55:10;;;;;;;3.30;1.27;;;14.10;99.90;;;;;;5135044;27;20051;-68
2022/07/29 01:57:40;;;;;;;2.22;1.30;;;14.10;99.90;;;;;;5133997;27;20071;-69
2022/07/29 02:00:06;;;;;;;3.20;1.45;;;14.10;99.90;;;;;;5104609;28;20043;-69
2022/07/29 02:02:35;;;;;;;2.40;1.35;;;14.10;99.90;;;;;;5103389;28;20085;-69
2022/07/29 02:05:02;;;;;;;2.13;1.20;;;14.10;99.90;;;;;;5087915;28;20057;-69
2022/07/29 02:07:31;;;;;;;2.05;1.35;;;14.10;99.90;;;;;;5114402;28;20051;-69
2022/07/29 02:09:58;;;;;;;2.83;2.05;;;14.10;99.90;;;;;;5122335;28;20048;-69
2022/07/29 02:12:25;;;;;;;1.70;1.10;;;14.10;99.90;;;;;;5103515;28;20062;-70
2022/07/29 02:14:53;;;;;;;2.05;1.30;;;14.10;99.90;;;;;;5102967;28;20047;-70
2022/07/29 02:17:32;;;;;;;2.45;1.52;;;14.10;99.90;;;;;;5122461;28;20039;-69
2022/07/29 02:20:01;;;;;;;1.98;1.30;;;14.10;99.90;;;;;;5100699;27;20050;-70
2022/07/29 02:22:30;;;;;;;3.17;1.35;;;14.10;99.90;;;;;;5122490;28;20062;-70
2022/07/29 02:24:57;;;;;;;2.45;1.30;;;14.10;99.90;;;;;;5123015;27;20035;-70
2022/07/29 02:27:25;;;;;;;2.58;1.20;;;14.00;99.90;;;;;;5109951;28;20126;-70
2022/07/29 02:29:53;;;;;;;2.55;1.30;;;14.00;99.90;;;;;;5122012;28;20044;-70
2022/07/29 02:32:21;;;;;;;2.85;1.58;;;14.00;99.90;;;;;;5127304;27;20122;-70
2022/07/29 02:34:48;;;;;;;2.63;1.45;;;14.00;99.90;;;;;;5121133;28;20040;-70
2022/07/29 02:37:16;;;;;;;2.20;1.38;;;14.10;99.90;;;;;;5112550;28;20090;-70
2022/07/29 02:39:44;;;;;;;2.67;1.40;;;14.00;99.90;;;;;;5103622;28;20119;-69
2022/07/29 02:42:13;;;;;;;1.92;1.30;;;14.00;99.90;;;;;;5113127;28;20039;-70
2022/07/29 02:44:39;;;;;;;3.17;1.65;;;14.10;99.90;;;;;;5120757;28;20097;-70
2022/07/29 02:47:23;;;;;;;3.28;1.23;;;14.10;99.90;;;;;;5121989;28;20036;-70
2022/07/29 02:50:14;;;;;;;3.67;1.25;;;14.10;99.90;;;;;;5120721;28;20063;-70
2022/07/29 02:53:03;;;;;;;1.90;1.20;;;14.10;99.90;;;;;;5110701;27;20446;-70
2022/07/29 02:55:44;;;;;;;2.60;1.40;;;14.00;99.90;;;;;;5125576;27;20056;-70
2022/07/29 02:58:33;;;;;;;2.65;1.58;;;14.00;99.90;;;;;;5101850;28;20138;-70
2022/07/29 03:01:02;;;;;;;1.95;1.10;;;14.00;99.90;;;;;;5121603;28;20047;-70
2022/07/29 03:03:37;;;;;;;2.90;1.40;;;14.00;99.90;;;;;;5121391;28;20031;-69
2022/07/29 03:06:07;;;;;;;2.58;1.42;;;14.00;99.90;;;;;;5105484;28;20051;-70
2022/07/29 03:08:34;;;;;;;2.47;1.33;;;14.00;99.90;;;;;;5121505;28;20109;-69
2022/07/29 03:11:01;;;;;;;2.83;1.42;;;14.00;99.90;;;;;;5120386;28;20059;-70
2022/07/29 03:13:29;;;;;;;2.17;1.23;;;14.00;99.90;;;;;;5103440;28;20050;-69
2022/07/29 03:15:56;;;;;;;2.78;1.10;;;14.00;99.90;;;;;;5117075;27;20078;-70
2022/07/29 03:18:22;;;;;;;2.63;1.20;;;14.00;99.90;;;;;;5123073;27;20453;-70
2022/07/29 03:20:48;;;;;;;3.50;1.67;;;13.90;99.90;;;;;;5102700;28;20058;-69
2022/07/29 03:23:23;;;;;;;2.13;1.30;;;14.00;99.90;;;;;;5110518;28;20043;-70
2022/07/29 03:25:53;;;;;;;3.05;1.30;;;13.90;99.90;;;;;;5125320;27;20054;-69
2022/07/29 03:28:19;;;;;;;2.42;1.25;;;13.90;99.90;;;;;;5101307;28;20039;-69
2022/07/29 03:30:45;;;;;;;2.88;1.30;;;13.90;99.90;;;;;;5102545;28;20073;-69
2022/07/29 03:33:11;;;;;;;3.08;1.38;;;13.90;99.90;;;;;;5097561;27;20099;-69
2022/07/29 03:35:36;;;;;;;5.00;1.38;;;13.90;99.90;;;;;;5123543;27;20044;-69
2022/07/29 03:38:02;;;;;;;2.53;1.30;;;13.90;99.90;;;;;;5120879;28;20039;-69
2022/07/29 03:40:38;;;;;;;2.65;1.27;;;13.90;99.90;;;;;;5120217;28;20038;-70
2022/07/29 03:43:05;;;;;;;2.78;1.20;;;13.90;99.90;;;;;;5102496;28;20044;-70
2022/07/29 03:45:33;;;;;;;3.30;1.23;;;13.90;99.90;;;;;;5101072;28;20047;-70
2022/07/29 03:48:07;;;;;;;2.35;1.48;;;13.90;99.90;;;;;;5123809;27;20047;-70
2022/07/29 03:50:33;;;;;;;3.40;1.38;;;13.90;99.90;;;;;;5119933;28;20043;-70
2022/07/29 03:53:00;;;;;;;2.00;1.30;;;13.90;99.90;;;;;;5120013;28;20523;-70
2022/07/29 03:55:28;;;;;;;1.88;1.10;;;13.90;99.90;;;;;;5120442;28;20054;-69
2022/07/29 03:57:56;;;;;;;3.55;1.40;;;13.90;99.90;;;;;;5119744;28;20044;-69
2022/07/29 04:00:25;;;;;;;2.20;1.23;;;13.90;99.90;;;;;;5119937;28;20509;-70
2022/07/29 04:02:51;;;;;;;2.80;1.30;;;13.90;99.90;;;;;;5101997;27;20139;-69
2022/07/29 04:05:17;;;;;;;2.15;1.30;;;13.90;99.90;;;;;;5140888;27;20042;-70
2022/07/29 04:07:47;;;;;;;2.78;1.30;;;13.90;99.90;;;;;;5125738;27;20039;-69
2022/07/29 04:10:15;;;;;;;2.53;1.30;;;13.90;99.90;;;;;;5134615;27;20103;-69
2022/07/29 04:12:41;;;;;;;3.17;1.45;;;13.90;99.90;;;;;;5102032;28;20047;-69
2022/07/29 04:15:07;;;;;;;2.38;1.20;;;13.90;99.90;;;;;;5100202;28;20101;-70
2022/07/29 04:17:33;;;;;;;2.95;1.30;;;13.90;99.90;;;;;;5120794;28;20063;-70
2022/07/29 04:19:58;;;;;;;2.67;1.30;;;13.90;99.90;;;;;;5102322;27;20051;-69
2022/07/29 04:22:24;;;;;;;3.35;1.15;;;13.90;99.90;;;;;;5140820;27;20092;-70
2022/07/29 04:24:50;;;;;;;3.33;1.33;;;13.90;99.90;;;;;;5122627;27;20055;-70
2022/07/29 04:27:16;;;;;;;2.65;1.33;;;13.90;99.90;;;;;;5107970;28;20590;-70
2022/07/29 04:29:41;;;;;;;1.85;1.05;;;13.90;99.90;;;;;;5119850;28;20040;-69
2022/07/29 04:32:07;;;;;;;2.55;1.25;;;13.90;99.90;;;;;;5100367;28;20621;-71
2022/07/29 04:34:33;;;;;;;2.88;1.25;;;13.90;99.90;;;;;;5120120;28;20180;-70
2022/07/29 04:36:58;;;;;;;1.80;1.00;;;13.90;99.90;;;;;;5118821;28;20051;-70
2022/07/29 04:39:25;;;;;;;3.60;1.13;;;14.00;99.90;;;;;;5101756;28;20039;-70
2022/07/29 04:41:51;;;;;;;2.13;1.00;;;14.00;99.90;;;;;;5110199;28;20080;-70
2022/07/29 04:44:17;;;;;;;2.55;1.42;;;14.00;99.90;;;;;;5138351;27;20039;-69
2022/07/29 04:46:43;;;;;;;2.25;1.17;;;14.00;99.90;;;;;;5122065;28;20038;-70
2022/07/29 04:49:09;;;;;;;2.55;1.08;;;14.00;99.90;;;;;;5119746;27;20043;-70
2022/07/29 04:51:35;;;;;;;2.60;1.17;;;14.00;99.90;;;;;;5110663;28;20051;-70
2022/07/29 04:54:00;;;;;;;2.88;1.20;;;14.10;99.90;;;;;;5107992;28;20044;-70
2022/07/29 04:56:27;;;;;;;2.67;1.10;;;14.10;99.90;;;;;;5098081;28;20055;-70
2022/07/29 04:58:53;;;;;;;2.30;1.17;;;14.10;99.90;;;;;;5098586;28;20396;-69
2022/07/29 05:01:19;;;;;;;1.98;1.20;;;14.20;99.90;;;;;;5099485;28;20048;-70
2022/07/29 05:03:45;;;;;;;2.72;1.23;;;14.20;99.90;;;;;;5118975;28;20040;-69
2022/07/29 05:06:10;;;;;;;2.40;1.10;;;14.20;99.90;;;;;;5098518;28;20123;-70
2022/07/29 05:08:36;;;;;;;1.65;1.00;;;14.20;99.90;;;;;;5103972;28;20058;-70
2022/07/29 05:11:02;;;;;;;1.88;1.08;;;14.30;99.90;;;;;;5114995;28;20036;-70
2022/07/29 05:13:29;;;;;;;2.75;1.42;;;14.30;99.90;;;;;;5084882;28;20604;-70
2022/07/29 05:15:55;;;;;;;1.92;1.17;;;14.40;99.90;;;;;;5097931;28;20610;-69
2022/07/29 05:18:21;;;;;;;2.78;1.10;;;14.40;99.90;;;;;;5116449;28;20636;-71
2022/07/29 05:20:46;;;;;;;2.85;1.27;;;14.50;99.90;;;;;;5094934;28;20048;-70
2022/07/29 05:23:12;;;;;;;3.67;1.27;;;14.50;99.90;;;;;;5098078;28;20040;-70
2022/07/29 05:25:38;;;;;;;2.35;1.10;;;14.60;99.90;;;;;;5102603;28;20079;-71
2022/07/29 05:28:04;;;;;;;2.03;1.05;;;14.60;99.90;;;;;;5097924;28;20032;-71
2022/07/29 05:30:30;;;;;;;2.38;1.17;;;14.70;99.90;;;;;;5097799;28;20066;-70
2022/07/29 05:32:55;;;;;;;2.33;1.20;;;14.80;99.90;;;;;;5096604;28;20460;-71
2022/07/29 05:35:21;;;;;;;3.05;1.23;;;14.80;99.90;;;;;;5099125;28;20036;-71
2022/07/29 05:37:47;;;;;;;2.45;1.40;;;14.80;99.90;;;;;;5099662;28;20064;-70
2022/07/29 05:40:12;;;;;;;2.80;1.20;;;14.90;99.90;;;;;;5118773;28;20040;-69
2022/07/29 05:42:38;;;;;;;3.30;1.15;;;15.00;99.90;;;;;;5100196;28;20450;-67
2022/07/29 05:45:05;;;;;;;3.25;1.48;;;15.00;99.90;;;;;;5096301;28;20059;-68
2022/07/29 05:47:30;;;;;;;4.13;1.40;;;15.00;99.90;;;;;;5099139;28;20081;-68
2022/07/29 05:49:56;;;;;;;3.90;2.03;;;15.00;99.90;;;;;;5096444;28;20086;-69
2022/07/29 05:52:22;;;;;;;3.38;1.33;;;15.10;99.90;;;;;;5118171;28;20113;-70
2022/07/29 05:54:49;;;;;;;3.13;1.30;;;15.10;99.90;;;;;;5126818;28;20522;-69
2022/07/29 05:57:24;;;;;;;3.80;1.25;;;15.20;99.90;;;;;;5118796;28;20040;-70
2022/07/29 05:59:51;;;;;;;3.72;1.30;;;15.10;99.90;;;;;;5103855;28;20406;-69
2022/07/29 06:02:17;;;;;;;2.05;1.13;;;15.10;99.90;;;;;;5122129;28;20077;-70
2022/07/29 06:04:43;;;;;;;1.80;1.02;;;15.20;99.90;;;;;;5123137;28;20051;-69
2022/07/29 06:07:09;;;;;;;2.10;1.10;;;15.20;99.90;;;;;;5103826;28;20051;-70
2022/07/29 06:09:35;;;;;;;3.28;1.50;;;15.20;99.90;;;;;;5122702;28;20052;-70
2022/07/29 06:12:01;;;;;;;2.88;1.17;;;15.20;99.90;;;;;;5122513;28;20039;-71
2022/07/29 06:14:28;;;;;;;2.53;1.20;;;15.20;99.90;;;;;;5107060;28;20588;-71
2022/07/29 06:16:54;;;;;;;3.78;1.20;;;15.20;99.90;;;;;;5122649;28;20093;-71
2022/07/29 06:19:20;;;;;;;3.47;1.30;;;15.30;99.90;;;;;;5086745;28;20107;-70
2022/07/29 06:21:46;;;;;;;2.65;1.35;;;15.30;99.90;;;;;;5104039;28;20090;-69
2022/07/29 06:24:13;;;;;;;3.60;1.40;;;15.40;99.90;;;;;;5114446;27;20043;-69
2022/07/29 06:26:40;;;;;;;2.80;1.60;;;15.50;99.90;;;;;;5111421;28;20044;-69
2022/07/29 06:29:07;;;;;;;2.10;0.98;;;15.50;99.90;;;;;;5121015;28;20039;-68
2022/07/29 06:31:33;;;;;;;2.30;1.20;;;15.60;99.90;;;;;;5120692;28;20043;-70
2022/07/29 06:33:59;;;;;;;3.08;1.40;;;15.60;99.90;;;;;;5122157;28;20077;-68
2022/07/29 06:36:24;;;;;;;3.53;1.48;;;15.70;99.90;;;;;;5102902;28;20043;-69
2022/07/29 06:38:50;;;;;;;2.13;1.30;;;15.70;99.90;;;;;;5113099;27;20043;-69
2022/07/29 06:41:16;;;;;;;2.97;1.27;;;15.80;99.90;;;;;;5106524;27;20057;-69
2022/07/29 06:43:43;;;;;;;2.88;1.30;;;15.80;99.90;;;;;;5125714;27;20032;-70
2022/07/29 06:46:12;;;;;;;3.00;1.40;;;15.90;99.90;;;;;;5102561;28;20049;-69
2022/07/29 06:48:39;;;;;;;3.25;1.40;;;15.90;99.90;;;;;;5121194;28;20036;-68
2022/07/29 06:51:06;;;;;;;3.10;1.23;;;16.00;99.90;;;;;;5121552;28;20059;-69
2022/07/29 06:53:32;;;;;;;3.20;1.20;;;16.00;99.90;;;;;;5126194;27;20095;-69
2022/07/29 06:56:00;;;;;;;2.58;1.38;;;16.10;99.90;;;;;;5121700;28;20031;-70
2022/07/29 06:58:26;;;;;;;2.38;1.30;;;16.10;99.90;;;;;;5119194;28;20074;-69
2022/07/29 07:00:52;;;;;;;2.60;1.48;;;16.20;99.90;;;;;;5109735;27;20054;-69
2022/07/29 07:03:18;;;;;;;3.15;1.42;;;16.20;99.90;;;;;;5097113;28;20039;-69
2022/07/29 07:05:45;;;;;;;2.10;1.10;;;16.30;99.90;;;;;;5133759;27;20406;-69
2022/07/29 07:08:12;;;;;;;2.00;1.20;;;16.40;99.90;;;;;;5122481;27;20092;-69
2022/07/29 07:10:38;;;;;;;4.55;1.20;;;16.50;99.90;;;;;;5118997;28;20106;-71
2022/07/29 07:13:05;;;;;;;2.20;1.20;;;16.50;99.90;;;;;;5132028;27;20043;-69
2022/07/29 07:15:31;;;;;;;2.67;1.50;;;16.50;99.90;;;;;;5123363;27;20119;-67
2022/07/29 07:17:57;;;;;;;2.30;1.30;;;16.60;99.90;;;;;;5120068;28;20078;-69
2022/07/29 07:20:24;;;;;;;2.90;1.60;;;16.70;99.90;;;;;;5116469;27;20043;-68
2022/07/29 07:22:50;;;;;;;3.95;1.30;;;16.70;99.90;;;;;;5043305;22;20515;-70
2022/07/29 07:25:17;;;;;;;2.40;1.40;;;16.80;99.90;;;;;;5009306;28;20070;-67
2022/07/29 07:27:46;;;;;;;2.78;1.38;;;16.90;99.90;;;;;;5013624;28;20042;-66
2022/07/29 07:30:13;;;;;;;2.30;1.20;;;16.90;99.90;;;;;;5014887;28;20041;-66
2022/07/29 07:32:38;;;;;;;2.33;1.40;;;16.90;99.90;;;;;;5014428;28;20038;-65
2022/07/29 07:35:06;;;;;;;3.22;1.42;;;16.90;99.90;;;;;;5013194;28;20050;-68
2022/07/29 07:37:32;;;;;;;1.90;1.10;;;16.90;99.90;;;;;;5014457;28;20101;-65
2022/07/29 07:39:58;;;;;;;4.10;1.40;;;17.00;99.90;;;;;;5014355;28;20157;-65
2022/07/29 07:42:24;;;;;;;2.60;1.33;;;17.10;99.90;;;;;;5014298;28;20074;-66
2022/07/29 07:44:50;;;;;;;2.42;1.50;;;17.10;99.90;;;;;;5014099;28;20056;-66
2022/07/29 07:47:19;;;;;;;3.45;1.42;;;17.20;99.90;;;;;;5014423;28;20042;-65
2022/07/29 07:49:54;;;;;;;2.53;1.17;;;17.30;99.90;;;;;;5014772;28;20486;-66
2022/07/29 07:52:21;;;;;;;2.85;1.40;;;17.30;99.90;;;;;;5013873;28;20125;-65
2022/07/29 07:54:48;;;;;;;3.03;1.20;;;17.40;99.90;;;;;;5014300;28;20390;-65
2022/07/29 07:57:14;;;;;;;2.90;1.30;;;17.50;99.90;;;;;;5013879;28;20050;-66
2022/07/29 07:59:41;;;;;;;3.20;1.23;;;17.60;99.90;;;;;;5014983;28;20386;-66
2022/07/29 08:02:09;;;;;;;3.03;1.35;;;17.70;99.90;;;;;;5014087;28;20052;-65
2022/07/29 08:04:35;;;;;;;2.15;1.35;;;17.70;99.90;;;;;;5014041;28;20120;-66
2022/07/29 08:07:01;;;;;;;2.47;1.17;;;17.80;99.90;;;;;;5014388;28;20042;-65
2022/07/29 08:09:28;;;;;;;3.13;1.10;;;17.80;99.90;;;;;;5013312;28;20042;-66
2022/07/29 08:11:54;;;;;;;3.85;2.08;;;17.90;99.90;;;;;;5013556;28;20069;-66
2022/07/29 08:14:20;;;;;;;2.67;1.30;;;17.90;99.90;;;;;;5013561;28;20494;-65
2022/07/29 08:16:46;;;;;;;2.30;1.20;;;17.90;99.90;;;;;;5014195;28;20050;-65
2022/07/29 08:19:12;;;;;;;2.30;1.20;;;17.90;99.90;;;;;;5013894;28;20486;-65
2022/07/29 08:21:38;;;;;;;2.47;1.30;;;18.00;99.90;;;;;;5014667;28;20068;-65
2022/07/29 08:26:49;;;;;;;2.40;1.20;;;18.10;99.90;;;;;;5033927;28;20055;-65
2022/07/29 08:29:14;;;;;;;3.00;1.30;;;18.10;99.90;;;;;;5033496;28;20103;-65
2022/07/29 08:31:40;;;;;;;3.72;1.40;;;18.10;99.90;;;;;;5033660;28;20048;-65
2022/07/29 08:34:06;;;;;;;2.70;1.50;;;18.20;99.90;;;;;;5033222;28;20037;-65
2022/07/29 08:36:33;;;;;;;2.67;1.20;;;18.20;99.90;;;;;;5033514;28;20102;-65
2022/07/29 08:39:00;;;;;;;2.50;1.23;;;18.20;99.90;;;;;;5033301;28;20057;-65
2022/07/29 08:41:26;;;;;;;2.63;1.20;;;18.20;99.90;;;;;;5033329;28;20077;-65
2022/07/29 08:43:52;;;;;;;2.05;1.30;;;18.20;99.90;;;;;;5033201;28;20064;-65
2022/07/29 08:46:19;;;;;;;2.78;1.30;;;18.30;99.90;;;;;;5033158;28;20537;-65
2022/07/29 08:48:45;;;;;;;2.72;1.20;;;18.30;99.90;;;;;;5033128;28;20176;-66
2022/07/29 08:51:21;;;;;;;2.72;1.40;;;18.40;99.90;;;;;;5015578;28;20598;-65
2022/07/29 08:53:50;;;;;;;3.15;1.92;;;18.50;99.90;;;;;;5033126;28;20045;-65
2022/07/29 08:56:18;;;;;;;3.40;1.42;;;18.60;99.90;;;;;;5033142;28;20107;-66
2022/07/29 08:58:46;;;;;;;3.33;1.23;;;18.60;99.90;;;;;;5015422;28;20041;-65
2022/07/29 09:01:15;;;;;;;2.28;1.38;;;18.70;99.90;;;;;;5033482;28;20120;-65
2022/07/29 09:03:44;;;;;;;2.42;1.30;;;18.80;99.90;;;;;;5033062;28;20049;-65
2022/07/29 09:06:14;;;;;;;2.20;1.30;;;18.90;99.90;;;;;;5033055;28;20095;-64
2022/07/29 09:08:40;;;;;;;2.53;1.40;;;18.90;99.90;;;;;;5033570;28;20127;-64
2022/07/29 09:11:07;;;;;;;2.13;1.10;;;19.00;99.90;;;;;;5032861;28;20045;-66
2022/07/29 09:13:33;;;;;;;2.45;1.23;;;19.00;99.90;;;;;;5033073;28;20438;-65
2022/07/29 09:15:59;;;;;;;2.90;1.50;;;19.10;99.90;;;;;;5032845;28;20091;-65
2022/07/29 09:18:39;;;;;;;4.32;1.33;;;19.20;99.90;;;;;;5033005;28;20474;-65
2022/07/29 09:24:06;;;;;;;51.05;9.82;;;19.30;99.90;;;;;;5032899;28;20508;-65
2022/07/29 09:26:34;;;;;;;6.60;1.83;;;19.40;99.90;;;;;;5033566;28;20069;-65
2022/07/29 09:29:07;;;;;;;3.25;1.50;;;19.50;99.90;;;;;;5033007;28;20128;-66
2022/07/29 09:31:35;;;;;;;2.55;1.38;;;19.50;99.90;;;;;;5015484;28;20045;-65
2022/07/29 09:34:01;;;;;;;3.83;1.70;;;19.60;99.90;;;;;;5017003;28;20370;-65
2022/07/29 09:36:27;;;;;;;3.08;1.40;;;19.60;99.90;;;;;;5037169;28;20037;-65
2022/07/29 09:39:02;;;;;;;25.25;4.93;;;19.60;99.90;;;;;;5018980;28;20422;-65
2022/07/29 09:41:29;;;;;;;4.95;1.95;;;19.60;99.90;;;;;;5019933;28;20042;-66
2022/07/29 09:43:59;;;;;;;10.52;2.58;;;19.60;99.90;;;;;;5019324;28;20428;-66
2022/07/29 09:46:25;;;;;;;2.90;1.67;;;19.60;99.90;;;;;;5036964;28;20437;-65
2022/07/29 09:49:12;;;;;;;9.45;2.03;;;19.50;99.90;;;;;;5018995;28;20501;-67
2022/07/29 09:51:38;;;;;;;3.55;1.65;;;19.50;99.90;;;;;;5036381;28;20132;-65
2022/07/29 09:54:27;;;;;;;2.50;1.55;;;19.50;99.90;;;;;;5036369;28;20045;-65
2022/07/29 09:56:54;;;;;;;3.22;1.38;;;19.60;99.90;;;;;;5036836;28;20362;-65
2022/07/29 09:59:22;;;;;;;3.33;1.40;;;19.60;99.90;;;;;;5018872;28;20049;-66
2022/07/29 10:01:51;;;;;;;3.78;1.60;;;19.60;99.90;;;;;;5036312;28;20037;-66
2022/07/29 10:04:18;;;;;;;3.97;1.13;;;19.60;99.90;;;;;;5036177;28;20115;-66
2022/07/29 10:07:00;;;;;;;3.17;1.38;;;19.60;99.90;;;;;;5036151;28;20052;-65
2022/07/29 10:09:27;;;;;;;3.80;1.40;;;19.60;99.90;;;;;;5036662;28;20391;-65
2022/07/29 10:12:10;;;;;;;3.05;1.80;;;19.60;99.90;;;;;;5036233;28;20041;-66
2022/07/29 10:14:38;;;;;;;2.40;1.30;;;19.60;99.90;;;;;;5019007;28;20405;-66
2022/07/29 10:17:05;;;;;;;3.35;1.17;;;19.60;99.90;;;;;;5035846;28;20052;-65
2022/07/29 10:19:32;;;;;;;2.88;1.58;;;19.60;99.90;;;;;;5035895;28;20052;-66
2022/07/29 10:21:59;;;;;;;2.63;1.27;;;19.60;99.90;;;;;;5035596;28;20126;-66
2022/07/29 10:24:27;;;;;;;2.35;1.08;;;19.60;99.90;;;;;;5036626;28;20049;-66
2022/07/29 10:26:59;;;;;;;2.83;1.30;;;19.50;99.90;;;;;;5018109;28;20037;-65
2022/07/29 10:29:25;;;;;;;4.05;1.65;;;19.50;99.90;;;;;;5035773;28;20085;-65
2022/07/29 10:32:09;;;;;;;3.45;1.55;;;19.50;99.90;;;;;;5035594;28;20052;-65
2022/07/29 10:34:43;;;;;;;2.53;1.50;;;19.40;99.90;;;;;;5035519;28;20045;-66
2022/07/29 10:37:30;;;;;;;2.65;1.40;;;19.40;99.90;;;;;;5035870;28;20355;-65
2022/07/29 10:39:58;;;;;;;;;;;19.30;99.90;;;;;;5036779;28;20049;-66
2022/07/29 10:42:27;;;;;;;3.45;1.50;;;19.30;99.90;;;;;;5035745;28;19924;-66
2022/07/29 10:44:53;;;;;;;2.65;1.42;;;19.20;99.90;;;;;;5035498;28;20422;-66
2022/07/29 10:47:26;;;;;;;3.47;1.50;;;19.20;99.90;;;;;;5035941;28;20136;-66
2022/07/29 10:50:04;;;;;;;2.65;1.55;;;19.10;99.90;;;;;;5035786;28;20103;-66
2022/07/29 10:52:56;;;;;;;3.25;1.50;;;19.10;99.90;;;;;;5035708;28;20462;-66
2022/07/29 10:55:39;;;;;;;3.22;1.42;;;19.10;99.90;;;;;;5035256;28;20071;-66
2022/07/29 10:58:26;;;;;;;2.90;1.55;;;19.00;99.90;;;;;;5035389;28;20041;-66
2022/07/29 11:00:53;;;;;;;3.42;1.40;;;19.00;99.90;;;;;;5035157;28;20061;-66
2022/07/29 11:03:45;;;;;;;3.58;1.65;;;19.00;99.90;;;;;;5034974;28;20049;-65
2022/07/29 11:06:11;;;;;;;2.50;1.50;;;19.00;99.90;;;;;;5035158;28;20107;-65
2022/07/29 11:08:37;;;;;;;3.00;1.40;;;19.00;99.90;;;;;;5034975;28;20084;-65
2022/07/29 11:11:32;;;;;;;3.55;1.63;;;19.00;99.90;;;;;;5035259;28;20038;-65
2022/07/29 11:13:58;;;;;;;3.50;1.65;;;19.00;99.90;;;;;;5017743;28;20050;-65
2022/07/29 11:16:25;;;;;;;5.63;2.00;;;19.00;99.90;;;;;;5034557;28;20116;-65
2022/07/29 11:19:13;;;;;;;228.20;30.15;;;19.00;99.90;;;;;;5017080;28;20158;-66
2022/07/29 11:21:41;;;;;;;37.03;5.72;;;19.00;99.90;;;;;;5034434;28;20104;-65
2022/07/29 11:24:13;;;;;;;5.40;2.00;;;19.00;99.90;;;;;;5034435;28;20056;-65
2022/07/29 11:26:39;;;;;;;5.93;1.80;;;19.10;99.90;;;;;;5034586;28;20107;-65
2022/07/29 11:29:14;;;;;;;4.20;1.60;;;19.10;99.90;;;;;;5016800;28;20155;-66
2022/07/29 11:31:44;;;;;;;3.22;1.73;;;19.10;99.90;;;;;;5035026;28;20044;-66
2022/07/29 11:34:17;;;;;;;3.75;1.40;;;19.10;99.90;;;;;;5034621;28;20049;-65
2022/07/29 11:37:12;;;;;;;3.40;1.75;;;19.20;99.90;;;;;;5034394;28;20179;-66
2022/07/29 11:39:43;;;;;;;3.10;1.70;;;19.30;99.90;;;;;;5034411;28;20052;-65
2022/07/29 11:42:21;;;;;;;3.88;1.58;;;19.30;99.90;;;;;;5017231;28;20413;-65
2022/07/29 11:45:10;;;;;;;4.25;1.80;;;19.40;99.90;;;;;;5016679;28;20049;-66
2022/07/29 11:47:45;;;;;;;4.22;1.85;;;19.50;99.90;;;;;;5035039;28;20442;-65
2022/07/29 11:50:13;;;;;;;5.18;1.80;;;19.60;99.90;;;;;;5034202;28;20053;-66
2022/07/29 11:52:46;;;;;;;4.10;1.83;;;19.60;99.90;;;;;;5034236;28;20045;-66
2022/07/29 11:55:19;;;;;;;3.78;2.20;;;19.70;99.90;;;;;;5033942;28;20056;-66
2022/07/29 11:58:00;;;;;;;3.30;1.80;;;19.70;99.90;;;;;;5034070;28;20120;-66
2022/07/29 12:00:28;;;;;;;2.92;1.90;;;19.80;99.90;;;;;;5016584;28;20041;-66
2022/07/29 12:02:55;;;;;;;381.42;76.10;;;19.90;99.90;;;;;;5016210;28;20040;-66
2022/07/29 12:05:21;;;;;;;39.95;7.97;;;19.90;99.90;;;;;;5017043;28;20109;-66
2022/07/29 12:07:48;;;;;;;605.13;112.45;;;20.00;99.90;;;;;;5033819;28;20056;-66
2022/07/29 12:10:14;;;;;;;634.60;137.23;;;20.10;99.90;;;;;;5033772;28;20045;-65
2022/07/29 12:12:39;;;;;;;10.45;4.18;;;20.10;99.90;;;;;;5016135;28;20038;-66
2022/07/29 12:15:17;;;;;;;3.00;1.90;;;20.20;99.90;;;;;;5033607;28;20128;-65
2022/07/29 12:17:43;;;;;;;7.82;2.35;;;20.20;99.90;;;;;;5033664;28;20086;-66
2022/07/29 12:20:09;;;;;;;7.95;2.60;;;20.30;99.90;;;;;;5033549;28;20041;-66
2022/07/29 12:22:41;;;;;;;3.65;1.52;;;20.40;99.90;;;;;;5033588;28;20056;-65
2022/07/29 12:25:11;;;;;;;6.63;2.03;;;20.40;99.90;;;;;;5034456;28;20064;-65
2022/07/29 12:27:41;;;;;;;4.10;1.88;;;20.50;99.90;;;;;;5033442;28;20046;-65
2022/07/29 12:30:09;;;;;;;3.72;1.75;;;20.50;99.90;;;;;;5033690;28;20065;-65
2022/07/29 12:32:36;;;;;;;2.72;1.40;;;20.60;99.90;;;;;;5015809;28;20052;-67
2022/07/29 12:35:05;;;;;;;4.35;1.80;;;20.60;99.90;;;;;;5033133;28;20045;-66
2022/07/29 12:37:34;;;;;;;5.80;2.00;;;20.60;99.90;;;;;;5033365;28;20175;-65
2022/07/29 12:40:00;;;;;;;4.10;1.70;;;20.70;99.90;;;;;;5033728;28;20046;-66
2022/07/29 12:42:26;;;;;;;3.67;1.70;;;20.70;99.90;;;;;;5033316;28;20045;-66
2022/07/29 12:44:51;;;;;;;3.67;1.50;;;20.70;99.90;;;;;;5033195;28;20141;-66
2022/07/29 12:47:18;;;;;;;2.58;1.52;;;20.70;99.90;;;;;;5033787;28;20103;-66
2022/07/29 12:49:45;;;;;;;5.13;1.70;;;20.70;99.90;;;;;;5015673;28;20063;-65
2022/07/29 12:52:28;;;;;;;5.45;2.05;;;20.70;99.90;;;;;;5032886;28;20076;-66
2022/07/29 12:54:54;;;;;;;3.25;1.83;;;20.80;99.90;;;;;;5015593;28;20073;-66
2022/07/29 12:57:20;;;;;;;4.25;1.80;;;20.80;99.90;;;;;;5033518;28;20123;-65
2022/07/29 13:00:13;;;;;;;3.70;1.55;;;20.80;99.90;;;;;;5032979;28;20394;-66
2022/07/29 13:02:41;;;;;;;5.50;1.83;;;20.90;99.90;;;;;;5033127;28;20041;-65